Time;durP1;ratioP1;P1;durP2;ratioP2;P2;SDS_P1;SDS_P2;PMS_P1;PMS_P2;Temp;Humidity;BMP_temperature;BMP_pressure;BME280_temperature;BME280_humidity;BME280_pressure;Samples;Min_cycle;Max_cycle;Signal;HPM_P1;HPM_P2
2022/11/30 00:02:21;;;;;;;8.13;4.35;;;;;;;15.67;58.66;99653.41;4954725;29;20035;-67
2022/11/30 00:04:47;;;;;;;6.75;4.13;;;;;;;15.67;58.61;99650.78;4937769;29;20746;-66
2022/11/30 00:07:12;;;;;;;8.75;3.97;;;;;;;15.65;58.75;99652.63;4954699;28;20035;-66
2022/11/30 00:09:37;;;;;;;8.73;4.55;;;;;;;15.63;58.73;99652.66;4954202;29;20045;-66
2022/11/30 00:12:03;;;;;;;7.68;4.40;;;;;;;15.62;58.61;99644.81;4954874;29;20031;-66
2022/11/30 00:14:28;;;;;;;6.22;4.38;;;;;;;15.63;58.57;99643.91;4954874;29;20039;-66
2022/11/30 00:16:54;;;;;;;7.18;4.55;;;;;;;15.62;58.50;99644.81;4954393;29;20035;-66
2022/11/30 00:19:19;;;;;;;7.45;4.00;;;;;;;15.64;58.63;99648.28;4937365;29;20474;-66
2022/11/30 00:21:45;;;;;;;6.32;3.80;;;;;;;15.63;58.42;99649.16;4954834;29;20031;-66
2022/11/30 00:24:10;;;;;;;6.50;4.13;;;;;;;15.60;58.65;99649.28;4954773;29;20030;-66
2022/11/30 00:26:35;;;;;;;5.95;3.67;;;;;;;15.61;58.47;99645.75;4954648;29;20035;-66
2022/11/30 00:29:01;;;;;;;7.47;4.55;;;;;;;15.57;58.47;99640.59;4954617;29;20047;-66
2022/11/30 00:31:26;;;;;;;7.25;4.30;;;;;;;15.57;58.55;99635.34;4954394;29;20065;-67
2022/11/30 00:33:52;;;;;;;8.07;4.40;;;;;;;15.58;58.50;99638.81;4954757;29;20502;-66
2022/11/30 00:36:21;;;;;;;8.73;4.30;;;;;;;15.57;58.37;99634.47;4954551;29;20392;-66
2022/11/30 00:38:47;;;;;;;8.57;4.70;;;;;;;15.59;58.54;99637.06;4954620;29;20488;-66
2022/11/30 00:41:13;;;;;;;7.47;4.15;;;;;;;15.56;58.55;99630.13;4954621;29;20034;-66
2022/11/30 00:43:39;;;;;;;7.30;4.18;;;;;;;15.56;58.60;99628.34;4954469;29;20043;-66
2022/11/30 00:46:05;;;;;;;8.18;4.70;;;;;;;15.55;58.55;99631.88;4937282;29;20476;-66
2022/11/30 00:48:30;;;;;;;8.10;4.55;;;;;;;15.56;58.39;99633.59;4954450;29;20031;-66
2022/11/30 00:50:56;;;;;;;7.15;4.25;;;;;;;15.55;58.77;99626.63;4954543;29;20031;-65
2022/11/30 00:53:22;;;;;;;6.47;4.10;;;;;;;15.56;58.35;99628.34;4953929;29;20028;-66
2022/11/30 00:55:47;;;;;;;8.55;4.45;;;;;;;15.55;58.66;99634.50;4954449;29;20101;-66
2022/11/30 00:58:13;;;;;;;9.70;4.20;;;;;;;15.50;58.69;99632.97;4936821;29;20031;-66
2022/11/30 01:00:39;;;;;;;7.38;4.10;;;;;;;15.54;58.29;99631.94;4954352;29;20038;-65
2022/11/30 01:03:04;;;;;;;7.97;4.10;;;;;;;15.52;58.82;99631.13;4937108;29;20035;-66
2022/11/30 01:05:32;;;;;;;6.65;3.42;;;;;;;15.52;58.73;99632.00;4954138;28;20031;-66
2022/11/30 01:08:02;;;;;;;6.22;3.78;;;;;;;15.53;58.72;99638.97;4937016;29;20027;-66
2022/11/30 01:10:28;;;;;;;6.70;3.90;;;;;;;15.51;58.43;99627.66;4954284;29;20063;-66
2022/11/30 01:12:53;;;;;;;5.72;3.50;;;;;;;15.50;58.53;99628.56;4957164;28;20087;-66
2022/11/30 01:15:19;;;;;;;6.57;3.83;;;;;;;15.48;58.52;99627.75;4957921;29;20023;-66
2022/11/30 01:17:44;;;;;;;7.25;3.85;;;;;;;15.52;58.60;99624.13;4940708;29;20035;-66
2022/11/30 01:20:10;;;;;;;8.68;4.45;;;;;;;15.52;58.55;99625.88;4957903;29;20042;-66
2022/11/30 01:22:35;;;;;;;9.10;4.50;;;;;;;15.49;58.57;99632.09;4957786;29;20507;-67
2022/11/30 01:25:02;;;;;;;8.57;4.43;;;;;;;15.46;58.42;99631.34;4957985;29;20121;-65
2022/11/30 01:27:27;;;;;;;6.97;3.90;;;;;;;15.44;58.41;99627.00;4957251;29;20102;-66
2022/11/30 01:29:53;;;;;;;6.90;4.35;;;;;;;15.46;58.36;99636.63;4957556;29;20051;-67
2022/11/30 01:32:18;;;;;;;6.75;4.05;;;;;;;15.45;58.49;99651.53;4957587;29;20027;-67
2022/11/30 01:34:43;;;;;;;6.93;4.47;;;;;;;15.45;58.52;99643.63;4957655;29;20050;-66
2022/11/30 01:37:09;;;;;;;7.22;4.38;;;;;;;15.44;58.22;99645.44;4957572;29;20032;-67
2022/11/30 01:39:34;;;;;;;7.00;4.60;;;;;;;15.43;58.54;99638.44;4957540;29;20019;-66
2022/11/30 01:42:00;;;;;;;6.50;4.13;;;;;;;15.40;58.52;99627.19;4957207;29;20027;-66
2022/11/30 01:44:26;;;;;;;7.88;4.88;;;;;;;15.40;58.64;99638.53;4957374;29;20034;-66
2022/11/30 01:46:59;;;;;;;7.30;4.18;;;;;;;15.40;58.34;99633.28;4957199;29;20046;-67
2022/11/30 01:49:47;;;;;;;8.38;4.95;;;;;;;15.41;58.14;99634.16;4957311;29;20035;-66
2022/11/30 01:52:15;;;;;;;6.57;4.03;;;;;;;15.44;58.32;99636.66;4957346;29;20034;-66
2022/11/30 01:55:11;;;;;;;8.60;4.90;;;;;;;15.40;58.06;99621.94;4957360;29;20038;-66
2022/11/30 01:57:41;;;;;;;7.97;5.18;;;;;;;15.37;58.32;99636.03;4956945;29;20035;-66
2022/11/30 02:00:10;;;;;;;7.20;4.65;;;;;;;15.39;58.42;99635.97;4957211;29;20027;-66
2022/11/30 02:02:54;;;;;;;8.57;5.25;;;;;;;15.40;58.40;99632.44;4957053;29;20030;-66
2022/11/30 02:05:20;;;;;;;8.63;5.07;;;;;;;15.41;58.24;99642.03;4956843;29;20042;-66
2022/11/30 02:07:45;;;;;;;8.52;4.75;;;;;;;15.33;58.49;99630.91;4957145;29;20106;-66
2022/11/30 02:10:16;;;;;;;6.72;4.43;;;;;;;15.38;58.17;99634.25;4956388;29;20024;-66
2022/11/30 02:13:07;;;;;;;8.82;4.72;;;;;;;15.37;58.11;99630.78;4956753;29;20019;-66
2022/11/30 02:15:54;;;;;;;6.45;4.43;;;;;;;15.37;58.26;99625.53;4956918;29;20122;-66
2022/11/30 02:18:51;;;;;;;7.65;5.00;;;;;;;15.34;58.62;99622.97;4956924;29;20032;-67
2022/11/30 02:21:27;;;;;;;6.97;4.80;;;;;;;15.33;58.39;99618.63;4878867;29;20045;-65
2022/11/30 02:23:56;;;;;;;6.65;4.70;;;;;;;15.36;58.50;99625.56;4862654;29;20043;-65
2022/11/30 02:27:03;;;;;;;6.93;5.10;;;;;;;15.34;58.28;99617.72;4878396;29;20523;-66
2022/11/30 02:29:42;;;;;;;7.47;4.55;;;;;;;15.33;58.57;99612.50;4823176;29;20848;-66
2022/11/30 02:32:21;;;;;;;7.72;4.78;;;;;;;15.32;58.39;99618.69;4829237;29;20054;-66
2022/11/30 02:34:49;;;;;;;6.63;4.13;;;;;;;15.32;58.46;99618.69;4841706;29;20548;-66
2022/11/30 02:37:15;;;;;;;6.53;4.40;;;;;;;15.33;58.36;99621.28;4841654;29;20037;-66
2022/11/30 02:39:42;;;;;;;7.25;4.43;;;;;;;15.36;58.51;99621.16;4841325;29;20053;-67
2022/11/30 02:42:12;;;;;;;6.40;4.63;;;;;;;15.36;58.45;99620.31;4841546;29;20880;-66
2022/11/30 02:44:41;;;;;;;8.30;5.20;;;;;;;15.34;58.57;99619.50;4841427;29;20045;-67
2022/11/30 02:47:34;;;;;;;7.07;4.60;;;;;;;15.32;58.40;99618.69;4809632;29;20486;-66
2022/11/30 02:50:06;;;;;;;7.65;4.50;;;;;;;15.32;58.63;99618.69;4823188;29;20030;-67
2022/11/30 02:52:33;;;;;;;7.38;4.07;;;;;;;15.34;58.44;99624.78;4823080;29;20133;-66
2022/11/30 02:55:05;;;;;;;7.32;4.57;;;;;;;15.33;58.28;99612.50;4807584;29;20197;-66
2022/11/30 02:57:30;;;;;;;8.18;4.47;;;;;;;15.32;58.26;99614.31;4842737;29;20049;-66
2022/11/30 02:59:56;;;;;;;6.90;4.85;;;;;;;15.30;58.54;99610.84;4896949;29;20032;-66
2022/11/30 03:02:22;;;;;;;7.57;4.90;;;;;;;15.27;58.44;99611.81;4897081;29;20029;-66
2022/11/30 03:04:47;;;;;;;7.85;5.15;;;;;;;15.28;58.42;99613.56;4915097;29;20040;-66
2022/11/30 03:07:13;;;;;;;7.75;4.55;;;;;;;15.28;58.47;99608.28;4952282;29;20504;-67
2022/11/30 03:09:38;;;;;;;7.20;4.85;;;;;;;15.29;58.80;99606.50;4955514;29;20027;-66
2022/11/30 03:12:04;;;;;;;6.85;4.50;;;;;;;15.33;58.44;99609.88;4955794;29;20095;-66
2022/11/30 03:14:29;;;;;;;7.47;4.82;;;;;;;15.30;58.41;99600.31;4955727;29;20491;-66
2022/11/30 03:16:54;;;;;;;7.32;4.72;;;;;;;15.29;58.50;99604.75;4955794;29;20027;-67
2022/11/30 03:19:20;;;;;;;9.80;5.13;;;;;;;15.26;58.74;99604.84;4955712;29;20027;-67
2022/11/30 03:21:45;;;;;;;6.38;4.75;;;;;;;15.27;58.58;99603.09;4955715;29;20439;-66
2022/11/30 03:24:11;;;;;;;7.30;4.57;;;;;;;15.26;58.64;99610.09;4955465;29;20027;-66
2022/11/30 03:26:36;;;;;;;7.35;4.60;;;;;;;15.26;58.45;99610.09;4955449;29;20024;-66
2022/11/30 03:29:02;;;;;;;7.25;4.75;;;;;;;15.28;58.47;99610.91;4955418;29;20044;-67
2022/11/30 03:31:27;;;;;;;6.90;5.18;;;;;;;15.26;58.66;99604.84;4955375;29;20079;-67
2022/11/30 03:33:53;;;;;;;8.20;5.25;;;;;;;15.26;58.44;99599.59;4955308;28;20034;-66
2022/11/30 03:36:18;;;;;;;8.13;4.93;;;;;;;15.26;58.31;99599.59;4954514;29;20483;-66
2022/11/30 03:38:43;;;;;;;7.22;5.00;;;;;;;15.26;58.66;99596.09;4955130;29;20034;-66
2022/11/30 03:41:15;;;;;;;7.40;5.07;;;;;;;15.26;58.45;99591.69;4955318;29;20055;-66
2022/11/30 03:43:41;;;;;;;8.60;5.60;;;;;;;15.25;58.27;99587.34;4955361;29;20031;-65
2022/11/30 03:46:07;;;;;;;8.73;5.18;;;;;;;15.23;58.40;99589.19;4955088;29;20023;-67
2022/11/30 03:48:34;;;;;;;9.23;6.20;;;;;;;15.23;58.29;99589.19;4955254;29;20034;-66
2022/11/30 03:51:00;;;;;;;7.80;5.40;;;;;;;15.24;58.26;99587.41;4955071;29;20620;-66
2022/11/30 03:53:26;;;;;;;8.10;5.53;;;;;;;15.24;58.41;99590.91;4954837;29;20059;-67
2022/11/30 03:55:56;;;;;;;7.85;5.13;;;;;;;15.23;58.34;99589.19;4955047;29;20031;-66
2022/11/30 03:58:23;;;;;;;8.75;5.20;;;;;;;15.21;58.28;99590.16;4955020;29;20050;-66
2022/11/30 04:00:48;;;;;;;7.78;5.28;;;;;;;15.21;58.50;99585.72;4955120;29;20081;-66
2022/11/30 04:03:14;;;;;;;9.38;5.93;;;;;;;15.21;58.48;99588.34;4937816;29;20423;-66
2022/11/30 04:05:40;;;;;;;7.68;5.32;;;;;;;15.20;58.32;99583.19;4954747;29;20082;-65
2022/11/30 04:08:05;;;;;;;8.73;5.80;;;;;;;15.20;58.27;99584.03;4954556;29;20019;-66
2022/11/30 04:10:31;;;;;;;8.90;5.78;;;;;;;15.20;58.22;99591.91;4954477;29;20049;-66
2022/11/30 04:12:56;;;;;;;8.15;5.50;;;;;;;15.20;58.24;99591.06;4954910;29;20023;-66
2022/11/30 04:15:22;;;;;;;8.10;5.40;;;;;;;15.20;58.41;99594.53;4954817;29;20034;-66
2022/11/30 04:17:47;;;;;;;10.90;6.22;;;;;;;15.19;58.08;99594.59;4954864;29;20427;-66
2022/11/30 04:20:13;;;;;;;8.40;5.53;;;;;;;15.18;58.05;99591.13;4954751;29;20031;-66
2022/11/30 04:22:38;;;;;;;7.90;5.93;;;;;;;15.15;58.26;99596.47;4954488;29;20023;-66
2022/11/30 04:25:04;;;;;;;8.88;6.28;;;;;;;15.15;58.35;99591.19;4954825;29;20042;-66
2022/11/30 04:27:30;;;;;;;10.25;6.82;;;;;;;15.14;58.15;99594.75;4954624;29;20035;-67
2022/11/30 04:29:55;;;;;;;9.50;5.95;;;;;;;15.14;58.44;99594.75;4954483;29;20062;-66
2022/11/30 04:32:21;;;;;;;10.43;6.68;;;;;;;15.14;58.27;99586.88;4954553;29;20027;-66
2022/11/30 04:34:46;;;;;;;8.88;6.18;;;;;;;15.15;58.34;99597.34;4954424;29;20098;-66
2022/11/30 04:37:11;;;;;;;9.48;6.32;;;;;;;15.15;58.34;99601.72;4954243;29;20029;-66
2022/11/30 04:39:37;;;;;;;9.27;6.75;;;;;;;15.15;58.36;99601.72;4954528;29;20088;-66
2022/11/30 04:42:02;;;;;;;10.07;6.35;;;;;;;15.15;58.35;99599.09;4954040;29;20098;-66
2022/11/30 04:44:28;;;;;;;10.57;7.05;;;;;;;15.11;58.43;99597.50;4954555;29;20036;-66
2022/11/30 04:46:53;;;;;;;10.20;6.20;;;;;;;15.11;58.28;99600.97;4956260;28;20035;-66
2022/11/30 04:49:18;;;;;;;9.50;6.30;;;;;;;15.14;58.24;99595.63;4958498;29;20441;-66
2022/11/30 04:51:44;;;;;;;10.98;6.63;;;;;;;15.14;58.22;99600.88;4958076;29;20027;-67
2022/11/30 04:54:09;;;;;;;10.10;7.07;;;;;;;15.14;58.12;99594.75;4958462;29;20412;-66
2022/11/30 04:56:35;;;;;;;12.15;7.30;;;;;;;15.14;58.19;99594.75;4958168;29;20114;-67
2022/11/30 04:59:01;;;;;;;10.02;6.97;;;;;;;15.12;58.30;99601.84;4958367;29;20031;-66
2022/11/30 05:01:27;;;;;;;9.70;6.13;;;;;;;15.12;58.31;99597.44;4958260;29;20501;-65
2022/11/30 05:03:52;;;;;;;10.98;6.95;;;;;;;15.09;58.23;99596.69;4958394;29;20035;-66
2022/11/30 05:06:17;;;;;;;11.57;7.07;;;;;;;15.08;58.42;99600.22;4957484;29;20058;-67
2022/11/30 05:08:43;;;;;;;11.05;7.13;;;;;;;15.09;58.05;99594.91;4958168;29;20110;-66
2022/11/30 05:11:09;;;;;;;10.98;6.72;;;;;;;15.07;58.06;99594.13;4958107;29;20492;-66
2022/11/30 05:13:34;;;;;;;9.48;6.75;;;;;;;15.06;58.06;99583.66;4958027;29;20045;-67
2022/11/30 05:15:59;;;;;;;10.48;7.20;;;;;;;15.05;58.14;99590.66;4957928;29;20039;-66
2022/11/30 05:18:25;;;;;;;10.93;6.68;;;;;;;15.08;58.12;99584.44;4957994;29;20031;-66
2022/11/30 05:20:51;;;;;;;9.98;6.35;;;;;;;15.08;58.21;99584.44;4957547;29;20071;-67
2022/11/30 05:23:18;;;;;;;10.30;6.72;;;;;;;15.03;58.25;99588.09;4957682;29;20440;-67
2022/11/30 05:25:43;;;;;;;10.20;7.03;;;;;;;15.04;58.35;99586.31;4957657;29;20031;-67
2022/11/30 05:28:09;;;;;;;10.63;6.97;;;;;;;15.06;58.21;99581.03;4957719;29;20082;-66
2022/11/30 05:30:36;;;;;;;9.82;6.60;;;;;;;15.05;58.14;99584.56;4957581;29;20141;-66
2022/11/30 05:33:02;;;;;;;9.80;6.93;;;;;;;15.02;57.87;99586.38;4957497;29;20023;-67
2022/11/30 05:35:27;;;;;;;9.90;5.63;;;;;;;15.04;58.22;99578.44;4939988;29;20134;-66
2022/11/30 05:37:52;;;;;;;10.60;6.93;;;;;;;15.05;57.83;99568.81;4957615;29;20086;-66
2022/11/30 05:40:18;;;;;;;11.05;7.28;;;;;;;15.01;58.25;99568.91;4957520;29;20106;-67
2022/11/30 05:42:43;;;;;;;10.68;7.32;;;;;;;15.00;57.86;99572.44;4957604;29;20035;-66
2022/11/30 05:45:09;;;;;;;10.25;6.15;;;;;;;14.94;57.82;99567.38;4957590;29;20062;-66
2022/11/30 05:47:34;;;;;;;9.05;6.43;;;;;;;14.92;58.30;99561.34;4957216;29;20619;-66
2022/11/30 05:50:00;;;;;;;9.68;6.30;;;;;;;14.91;57.78;99567.47;4957074;29;20113;-66
2022/11/30 05:52:25;;;;;;;9.60;5.93;;;;;;;14.86;58.07;99564.16;4957473;29;20023;-66
2022/11/30 05:54:51;;;;;;;9.65;6.13;;;;;;;14.90;58.01;99571.03;4940075;29;20027;-66
2022/11/30 05:57:16;;;;;;;9.30;5.88;;;;;;;14.87;58.18;99558.00;4956838;28;20026;-66
2022/11/30 05:59:41;;;;;;;10.60;6.50;;;;;;;14.88;58.20;99559.72;4956471;29;20027;-66
2022/11/30 06:02:07;;;;;;;9.70;6.15;;;;;;;14.89;57.94;99556.16;4957213;29;20031;-66
2022/11/30 06:04:33;;;;;;;10.23;6.22;;;;;;;14.83;57.77;99553.75;4956713;29;20468;-65
2022/11/30 06:06:58;;;;;;;8.85;6.13;;;;;;;14.82;58.44;99557.28;4956907;29;20094;-65
2022/11/30 06:09:24;;;;;;;10.38;5.95;;;;;;;14.82;58.03;99557.28;4957031;29;20031;-66
2022/11/30 06:11:50;;;;;;;10.88;5.97;;;;;;;14.84;58.29;99555.47;4957020;29;20036;-66
2022/11/30 06:14:15;;;;;;;9.50;5.93;;;;;;;14.81;58.07;99555.59;4956992;29;20031;-67
2022/11/30 06:16:40;;;;;;;8.50;5.22;;;;;;;14.83;58.00;99548.50;4956362;29;20484;-66
2022/11/30 06:19:06;;;;;;;10.75;6.03;;;;;;;14.79;57.91;99553.00;4956607;29;20554;-66
2022/11/30 06:21:31;;;;;;;8.98;5.57;;;;;;;14.81;58.16;99550.34;4939700;29;20031;-66
2022/11/30 06:23:56;;;;;;;8.77;5.70;;;;;;;14.83;58.03;99553.75;4939592;29;20032;-65
2022/11/30 06:26:22;;;;;;;8.90;5.85;;;;;;;14.85;57.95;99558.06;4956645;29;20030;-66
2022/11/30 06:28:47;;;;;;;8.18;5.32;;;;;;;14.85;58.27;99552.78;4956521;29;20071;-66
2022/11/30 06:31:13;;;;;;;9.27;6.10;;;;;;;14.87;57.96;99553.59;4956679;29;20155;-66
2022/11/30 06:33:38;;;;;;;8.55;5.18;;;;;;;14.85;58.24;99552.78;4956235;29;20479;-66
2022/11/30 06:36:04;;;;;;;8.18;5.45;;;;;;;14.87;58.21;99555.38;4956484;29;20042;-65
2022/11/30 06:38:29;;;;;;;7.55;5.22;;;;;;;14.88;57.95;99557.09;4939178;29;20026;-66
2022/11/30 06:41:03;;;;;;;7.63;4.90;;;;;;;14.87;58.01;99555.38;4956651;29;20115;-66
2022/11/30 06:43:32;;;;;;;7.47;5.10;;;;;;;14.86;58.04;99554.50;4955835;29;20027;-67
2022/11/30 06:45:58;;;;;;;8.38;5.07;;;;;;;14.88;58.35;99557.94;4956184;29;20039;-66
2022/11/30 06:48:23;;;;;;;7.35;4.95;;;;;;;14.88;57.93;99557.09;4956065;29;20365;-66
2022/11/30 06:50:48;;;;;;;7.40;4.88;;;;;;;14.91;58.11;99562.22;4956169;29;20031;-66
2022/11/30 06:53:14;;;;;;;7.15;5.05;;;;;;;14.89;58.13;99564.06;4956117;29;20023;-66
2022/11/30 06:55:40;;;;;;;8.35;5.00;;;;;;;14.87;57.98;99561.47;4956196;29;20082;-65
2022/11/30 06:58:09;;;;;;;7.82;5.20;;;;;;;14.88;57.76;99559.72;4956120;29;20024;-65
2022/11/30 07:00:35;;;;;;;9.88;5.90;;;;;;;14.89;57.98;99558.81;4956042;29;20094;-66
2022/11/30 07:03:01;;;;;;;8.73;5.68;;;;;;;14.88;57.81;99562.34;4955771;29;20431;-66
2022/11/30 07:05:27;;;;;;;8.30;5.40;;;;;;;14.89;57.83;99564.94;4955722;29;20027;-66
2022/11/30 07:07:53;;;;;;;8.60;5.57;;;;;;;14.89;57.79;99564.06;4955965;29;20045;-67
2022/11/30 07:10:21;;;;;;;8.02;4.95;;;;;;;14.86;57.82;99564.16;4955577;28;20463;-66
2022/11/30 07:12:47;;;;;;;7.57;4.90;;;;;;;14.87;57.94;99565.88;4955889;29;20058;-66
2022/11/30 07:15:12;;;;;;;6.68;4.40;;;;;;;14.87;57.93;99563.25;4955501;29;20047;-67
2022/11/30 07:17:38;;;;;;;7.80;4.78;;;;;;;14.85;58.21;99568.56;4955923;29;20035;-66
2022/11/30 07:20:04;;;;;;;7.18;4.68;;;;;;;14.83;58.05;99577.41;4955854;29;20023;-66
2022/11/30 07:22:29;;;;;;;8.02;5.20;;;;;;;14.82;58.03;99578.31;4955744;29;20065;-66
2022/11/30 07:27:38;;;;;;;8.20;5.20;;;;;;;14.84;57.91;99572.09;4955671;29;20558;-66
2022/11/30 07:30:04;;;;;;;8.05;5.15;;;;;;;14.83;57.85;99575.66;4955008;29;20051;-67
2022/11/30 07:32:29;;;;;;;7.22;4.55;;;;;;;14.83;57.64;99574.78;4955440;29;20027;-66
2022/11/30 07:34:55;;;;;;;7.03;4.35;;;;;;;14.81;58.13;99579.22;4955575;29;20039;-65
2022/11/30 07:37:20;;;;;;;6.82;4.25;;;;;;;14.81;57.98;99576.59;4955454;29;20027;-65
2022/11/30 07:39:45;;;;;;;6.82;4.38;;;;;;;14.79;58.03;99578.41;4955537;29;20035;-66
2022/11/30 07:42:11;;;;;;;6.95;4.40;;;;;;;14.83;57.77;99580.03;4955509;29;20106;-66
2022/11/30 07:44:36;;;;;;;6.68;4.70;;;;;;;14.86;57.69;99579.91;4954992;29;20383;-66
2022/11/30 07:47:02;;;;;;;7.53;4.90;;;;;;;14.83;57.80;99578.28;4955253;29;20483;-66
2022/11/30 07:49:27;;;;;;;6.53;4.68;;;;;;;14.80;57.87;99574.84;4955220;29;20534;-66
2022/11/30 07:51:52;;;;;;;6.68;4.43;;;;;;;14.77;57.92;99568.81;4937895;29;20436;-66
2022/11/30 07:54:18;;;;;;;6.68;4.28;;;;;;;14.77;58.05;99571.44;4955233;29;20035;-66
2022/11/30 07:56:43;;;;;;;6.55;4.38;;;;;;;14.76;58.05;99580.22;4955127;29;20467;-66
2022/11/30 07:59:09;;;;;;;8.48;4.63;;;;;;;14.77;58.11;99565.31;4954822;29;20584;-67
2022/11/30 08:01:34;;;;;;;7.45;4.85;;;;;;;14.81;57.88;99571.34;4937870;29;20034;-66
2022/11/30 08:04:00;;;;;;;7.50;4.20;;;;;;;14.79;57.90;99567.91;4955020;29;20059;-66
2022/11/30 08:06:30;;;;;;;7.20;4.53;;;;;;;14.79;58.14;99573.16;4954819;29;20361;-66
2022/11/30 08:08:58;;;;;;;6.57;4.35;;;;;;;14.80;57.77;99575.72;4954889;29;20031;-66
2022/11/30 08:11:29;;;;;;;7.70;4.38;;;;;;;14.79;57.97;99573.16;4954854;29;20074;-67
2022/11/30 08:13:54;;;;;;;6.63;4.13;;;;;;;14.78;57.61;99572.31;4954014;29;20028;-66
2022/11/30 08:16:25;;;;;;;6.88;4.57;;;;;;;14.75;57.65;99578.53;4954762;29;20034;-66
2022/11/30 08:18:52;;;;;;;7.25;4.32;;;;;;;14.77;57.63;99584.56;4954793;29;20506;-66
2022/11/30 08:21:19;;;;;;;6.95;4.57;;;;;;;14.79;57.86;99581.91;4954209;28;20027;-65
2022/11/30 08:23:55;;;;;;;7.20;4.15;;;;;;;14.76;57.83;99590.75;4954710;29;20555;-66
2022/11/30 08:26:32;;;;;;;7.72;4.50;;;;;;;14.79;57.76;99578.41;4954613;29;20042;-66
2022/11/30 08:28:59;;;;;;;7.30;4.32;;;;;;;14.75;57.71;99582.91;4954188;29;20418;-66
2022/11/30 08:31:32;;;;;;;6.88;4.30;;;;;;;14.76;57.92;99582.00;4954619;29;20031;-66
2022/11/30 08:34:03;;;;;;;8.13;4.63;;;;;;;14.77;57.94;99581.94;4954502;29;20086;-66
2022/11/30 08:36:30;;;;;;;7.13;4.70;;;;;;;14.76;57.99;99574.97;4954425;29;20027;-66
2022/11/30 08:38:57;;;;;;;7.38;4.68;;;;;;;14.79;57.68;99584.53;4954614;29;20129;-66
2022/11/30 08:41:22;;;;;;;6.95;4.40;;;;;;;14.80;57.94;99582.75;4954607;29;20373;-66
2022/11/30 08:43:48;;;;;;;8.35;4.43;;;;;;;14.79;57.64;99576.66;4954311;29;20059;-66
2022/11/30 08:46:17;;;;;;;5.97;4.03;;;;;;;14.82;57.75;99578.31;4937198;29;20399;-66
2022/11/30 08:48:42;;;;;;;6.50;4.07;;;;;;;14.76;57.88;99580.22;4954565;29;20023;-65
2022/11/30 08:51:13;;;;;;;6.45;4.30;;;;;;;14.77;57.65;99571.44;4954361;29;20038;-66
2022/11/30 08:53:38;;;;;;;6.00;4.50;;;;;;;14.77;57.67;99571.44;4936806;29;20095;-66
2022/11/30 08:56:07;;;;;;;7.03;4.68;;;;;;;14.76;57.79;99580.22;4954430;29;20027;-66
2022/11/30 08:58:35;;;;;;;6.93;4.10;;;;;;;14.76;57.73;99574.97;4954104;29;20074;-66
2022/11/30 09:01:13;;;;;;;6.55;4.00;;;;;;;14.79;57.60;99581.03;4954204;29;20484;-65
2022/11/30 09:03:39;;;;;;;6.32;4.28;;;;;;;14.74;57.79;99582.06;4937098;29;20046;-66
2022/11/30 09:06:17;;;;;;;8.27;4.45;;;;;;;14.76;57.64;99582.84;4954082;29;20090;-66
2022/11/30 09:08:44;;;;;;;6.95;4.93;;;;;;;14.74;57.73;99582.06;4954352;29;20430;-66
2022/11/30 09:11:18;;;;;;;6.72;4.72;;;;;;;14.74;57.91;99582.06;4953655;29;20039;-67
2022/11/30 09:13:44;;;;;;;6.05;4.15;;;;;;;14.76;57.79;99590.75;4954143;29;20063;-66
2022/11/30 09:16:11;;;;;;;6.47;4.22;;;;;;;14.73;57.87;99580.28;4954192;29;20035;-66
2022/11/30 09:18:36;;;;;;;6.20;4.20;;;;;;;14.73;57.78;99582.91;4954198;29;20404;-66
2022/11/30 09:21:05;;;;;;;5.97;4.03;;;;;;;14.73;58.01;99568.94;4954221;29;20032;-66
2022/11/30 09:23:30;;;;;;;6.13;4.10;;;;;;;14.75;57.89;99573.25;4954234;29;20085;-66
2022/11/30 09:26:01;;;;;;;7.82;4.55;;;;;;;14.76;57.99;99574.97;4953482;29;20031;-66
2022/11/30 09:28:29;;;;;;;6.82;4.35;;;;;;;14.73;57.74;99574.19;4953960;29;20035;-66
2022/11/30 09:31:03;;;;;;;6.57;4.57;;;;;;;14.77;57.65;99571.44;4954223;29;20488;-66
2022/11/30 09:33:30;;;;;;;6.57;4.55;;;;;;;14.77;57.70;99581.94;4956756;28;20023;-65
2022/11/30 09:35:57;;;;;;;6.00;4.38;;;;;;;14.74;57.83;99575.91;4957793;29;20024;-66
2022/11/30 09:38:22;;;;;;;6.05;3.88;;;;;;;14.74;57.77;99574.19;4957661;29;20388;-67
2022/11/30 09:40:53;;;;;;;5.43;3.95;;;;;;;14.75;57.95;99583.78;4957447;29;20035;-66
2022/11/30 09:43:43;;;;;;;6.50;4.15;;;;;;;14.76;57.95;99582.84;4957666;29;20055;-66
2022/11/30 09:46:08;;;;;;;6.20;3.65;;;;;;;14.74;58.03;99582.06;4957422;29;20520;-66
2022/11/30 09:49:00;;;;;;;6.28;4.07;;;;;;;14.75;57.81;99589.03;4957314;29;20052;-67
2022/11/30 09:51:37;;;;;;;5.68;3.90;;;;;;;14.75;57.84;99588.16;4957322;29;20395;-66
2022/11/30 09:54:09;;;;;;;6.78;3.85;;;;;;;14.75;57.66;99583.78;4957288;29;20035;-66
2022/11/30 09:56:38;;;;;;;6.78;4.28;;;;;;;14.73;57.73;99585.53;4956988;29;20106;-66
2022/11/30 09:59:15;;;;;;;6.47;4.38;;;;;;;14.74;57.80;99595.19;4957252;29;20035;-66
2022/11/30 10:01:43;;;;;;;6.10;4.07;;;;;;;14.71;57.92;99597.88;4957159;29;20035;-66
2022/11/30 10:04:20;;;;;;;6.85;4.50;;;;;;;14.70;57.63;99590.03;4957154;29;20452;-66
2022/11/30 10:06:58;;;;;;;7.13;4.30;;;;;;;14.66;57.77;99593.69;4956759;29;20562;-66
2022/11/30 10:09:49;;;;;;;6.57;4.15;;;;;;;14.66;57.62;99605.03;4956702;29;20027;-66
2022/11/30 10:12:32;;;;;;;6.32;4.10;;;;;;;14.68;57.79;99597.97;4957102;29;20553;-66
2022/11/30 10:15:12;;;;;;;6.55;4.03;;;;;;;14.64;58.04;99594.56;4956918;29;20036;-66
2022/11/30 10:17:55;;;;;;;6.15;4.07;;;;;;;14.68;57.74;99595.34;4957021;29;20074;-64
2022/11/30 10:20:59;;;;;;;6.03;4.03;;;;;;;14.68;57.79;99587.44;4956935;29;20023;-67
2022/11/30 10:23:52;;;;;;;5.00;3.63;;;;;;;14.71;58.03;99597.88;4935653;29;20122;-66
2022/11/30 10:26:31;;;;;;;6.60;3.95;;;;;;;14.71;57.92;99589.13;4956549;29;20035;-67
2022/11/30 10:29:13;;;;;;;5.88;3.90;;;;;;;14.66;57.66;99594.53;4939403;29;20514;-67
2022/11/30 10:31:41;;;;;;;5.93;4.07;;;;;;;14.67;57.64;99591.00;4956670;29;20035;-66
2022/11/30 10:34:22;;;;;;;6.78;4.00;;;;;;;14.67;57.71;99583.13;4956614;29;20031;-66
2022/11/30 10:36:59;;;;;;;6.72;4.57;;;;;;;14.66;57.78;99586.66;4956602;29;20077;-67
2022/11/30 10:39:40;;;;;;;6.25;4.13;;;;;;;14.64;57.94;99585.84;4956176;29;20054;-66
2022/11/30 10:42:25;;;;;;;6.07;3.95;;;;;;;14.70;57.83;99579.53;4956574;29;20031;-66
2022/11/30 10:45:08;;;;;;;6.32;3.92;;;;;;;14.72;57.84;99583.81;4955765;28;20064;-66
2022/11/30 10:47:36;;;;;;;5.38;3.63;;;;;;;14.68;57.78;99582.19;4956334;29;20031;-66
2022/11/30 10:50:04;;;;;;;6.18;4.30;;;;;;;14.71;57.63;99581.25;4956296;29;20491;-66
2022/11/30 10:52:57;;;;;;;5.85;3.83;;;;;;;14.68;57.69;99571.69;4956284;29;20485;-65
2022/11/30 10:55:35;;;;;;;6.13;3.95;;;;;;;14.69;57.94;99568.19;4954620;29;20495;-66
2022/11/30 10:58:32;;;;;;;6.72;4.20;;;;;;;14.69;57.77;99567.31;4938842;29;20030;-66
2022/11/30 11:01:10;;;;;;;5.93;4.07;;;;;;;14.67;58.00;99562.09;4859604;29;20105;-66
2022/11/30 11:03:36;;;;;;;6.88;4.03;;;;;;;14.71;57.80;99561.09;4859686;29;20049;-66
2022/11/30 11:06:23;;;;;;;6.07;4.07;;;;;;;14.68;57.91;99555.94;4843820;29;20034;-66
2022/11/30 11:08:49;;;;;;;6.15;3.88;;;;;;;14.68;57.84;99550.69;4859324;29;20045;-66
2022/11/30 11:11:33;;;;;;;7.05;4.47;;;;;;;14.70;57.75;99542.75;4859587;29;20102;-67
2022/11/30 11:14:22;;;;;;;6.97;4.28;;;;;;;14.69;57.79;99549.81;4859331;29;20046;-66
2022/11/30 11:16:49;;;;;;;7.82;3.95;;;;;;;14.67;57.67;99548.97;4859549;29;20138;-66
2022/11/30 11:19:29;;;;;;;6.88;4.55;;;;;;;14.66;57.92;99547.25;4859343;29;20042;-66
2022/11/30 11:21:54;;;;;;;7.45;4.88;;;;;;;14.64;57.74;99543.84;4859139;29;20034;-67
2022/11/30 11:24:25;;;;;;;10.00;4.90;;;;;;;14.64;57.83;99534.16;4843778;29;20044;-66
2022/11/30 11:26:52;;;;;;;6.22;3.92;;;;;;;14.65;57.73;99529.78;4858705;29;20094;-73
2022/11/30 11:29:30;;;;;;;7.68;4.50;;;;;;;14.66;57.81;99535.91;4858844;29;20133;-72
2022/11/30 11:32:23;;;;;;;6.45;4.45;;;;;;;14.64;57.53;99534.16;4858961;29;20399;-72
2022/11/30 11:34:49;;;;;;;6.18;3.70;;;;;;;14.66;57.83;99531.50;4848560;29;20048;-72
2022/11/30 11:37:20;;;;;;;7.25;4.47;;;;;;;14.64;57.45;99530.69;4896118;28;20042;-72
2022/11/30 11:40:01;;;;;;;6.95;4.53;;;;;;;14.60;57.77;99531.72;4974765;28;20027;-72
2022/11/30 11:42:40;;;;;;;6.60;4.07;;;;;;;14.57;57.62;99521.31;4960839;28;20106;-71
2022/11/30 11:45:15;;;;;;;6.88;4.55;;;;;;;14.60;57.91;99519.44;4955079;29;20039;-72